Savannah, GA

2:01 PM EDT on August 29, 2016 (GMT -0400)
Old Pooler | | Change Station

Elev 36 ft 32.12 °N, 81.24 °W | Updated 48 seconds ago

Mostly Cloudy
Mostly Cloudy
93.9 °F
Feels Like 104 °F
N
4.2
Wind Variable Wind from ENE

Today
High -- | Low -- °F
--% Chance of Precip.
Yesterday
High -- | Low -- °F
Precip. -- in
Pressure 30.06 in
Visibility 10.0 miles
Clouds Scattered Clouds 3500 ft
Scattered Clouds 5000 ft
Mostly Cloudy 18000 ft
Heat Index 104 °F
Dew Point 74 °F
Humidity 52%
Rainfall 0.00 in
Snow Depth Not available.
6:58 AM 7:52 PM
Waning Crescent, 7% visible
METAR KSAV 291753Z 04009KT 10SM SCT035 SCT050 BKN180 32/21 A3006 RMK AO2 SLP177 CB DSNT SW T03220206 10333 20244 56007
Pressure 30.06 in
Visibility 10.0 miles
Clouds Scattered Clouds 3500 ft
Scattered Clouds 5000 ft
Mostly Cloudy 18000 ft
Heat Index 104 °F
Dew Point 74 °F
Humidity 52%
Rainfall 0.00 in
Snow Depth Not available.
6:58 AM 7:52 PM
Waning Crescent, 7% visible
METAR KSAV 291753Z 04009KT 10SM SCT035 SCT050 BKN180 32/21 A3006 RMK AO2 SLP177 CB DSNT SW T03220206 10333 20244 56007
Tropical Depression Nine was centered about 170 miles west-southwest of Key West, Florida, as of late Monday morning. The depression may struggle a bit in the southern Gulf of Mexico before finally making a Gulf Coast landfall later this week with soaking rain and gusty winds.

This latest system was designated a tropical depression Sunday after a Hurricane Hunter reconnaissance mission finally found a sufficiently organized low-pressure center with collocated shower and thunderstorm activity.

10-Day Weather Forecast

Almanac

Astronomy

Aug. 29, 2016 Rise Set
Actual Time
Civil Twilight
Nautical Twilight
Astronomical Twilight
Moon
Length of Visible Light
Length of Day
Tomorrow will be .
, % of the Moon is Illuminated

Today's Extremes

State Highs State Lows

Community

WunderPhotos

Upload Photos

1,935,685 photos uploaded!

WunderBlog® & News

Nearby

Air Quality

  Air Quality AQ Index Pollutant
Not available.

Snow Depth

Station Depth Elevation

Earthquake Activity

City Distance Mag. Time & Date
Minimum magnitude displayed is 2.5.

Coastal Water Temperatures

Place Temperature

Stations

Nearby Weather Stations

Station Location Temp. Windchill Dew Point Humidity Wind Precip. Elev Updated Type
                   

Watches & Warnings

There are currently no watches in effect.